createdAt,value
2023-03-21T00:00:26.275Z, 30.14
2023-03-21T00:01:26.307Z, 30.13
2023-03-21T00:02:26.379Z, 30.15
2023-03-21T00:03:26.430Z, 30.13
2023-03-21T00:04:27.132Z, 30.11
2023-03-21T00:05:26.448Z, 30.08
2023-03-21T00:06:26.371Z, 30.08
2023-03-21T00:07:26.391Z, 30.14
2023-03-21T00:08:26.390Z, 30.12
2023-03-21T00:09:26.387Z, 30.09
2023-03-21T00:10:39.221Z, 30.09
2023-03-21T00:11:26.404Z, 30.10
2023-03-21T00:12:26.469Z, 30.11
2023-03-21T00:13:26.494Z, 30.09
2023-03-21T00:14:26.518Z, 30.05
2023-03-21T00:15:40.028Z, 30.04
2023-03-21T00:16:28.175Z, 30.02
2023-03-21T00:17:26.497Z, 29.99
2023-03-21T00:18:26.502Z, 29.97
2023-03-21T00:19:26.675Z, 30.02
2023-03-21T00:20:26.547Z, 30.02
2023-03-21T00:21:44.253Z, 30.01
2023-03-21T00:22:26.543Z, 30.02
2023-03-21T00:23:26.606Z, 30.00
2023-03-21T00:24:26.582Z, 29.98
2023-03-21T00:25:26.657Z, 29.94
2023-03-21T00:26:26.616Z, 29.92
2023-03-21T00:27:47.290Z, 29.91
2023-03-21T00:28:26.638Z, 29.90
2023-03-21T00:29:26.672Z, 29.91
2023-03-21T00:30:26.653Z, 29.91
2023-03-21T00:31:26.705Z, 29.88
2023-03-21T00:32:26.711Z, 29.88
2023-03-21T00:33:26.684Z, 29.89
2023-03-21T00:34:36.686Z, 29.91
2023-03-21T00:35:54.013Z, 29.91
2023-03-21T00:36:26.791Z, 29.89
2023-03-21T00:37:26.731Z, 29.89
2023-03-21T00:38:26.714Z, 29.90
2023-03-21T00:39:26.716Z, 29.89
2023-03-21T00:40:32.914Z, 29.87
2023-03-21T00:41:41.586Z, 29.83
2023-03-21T00:42:26.900Z, 29.83
2023-03-21T00:43:26.906Z, 29.83
2023-03-21T00:44:26.913Z, 29.82
2023-03-21T00:45:26.935Z, 29.82
2023-03-21T00:46:30.105Z, 29.81
2023-03-21T00:47:26.990Z, 29.81
2023-03-21T00:48:27.035Z, 29.79
2023-03-21T00:49:26.947Z, 29.79
2023-03-21T00:50:26.963Z, 29.79
2023-03-21T00:51:26.959Z, 29.77
2023-03-21T00:52:39.887Z, 29.74
2023-03-21T00:53:26.969Z, 29.75
2023-03-21T00:54:26.969Z, 29.75
2023-03-21T00:55:27.021Z, 29.75
2023-03-21T00:56:27.005Z, 29.72
2023-03-21T00:57:38.045Z, 29.73
2023-03-21T00:58:27.003Z, 29.70
2023-03-21T00:59:27.054Z, 29.70
2023-03-21T01:00:27.059Z, 29.72
2023-03-21T01:01:27.086Z, 29.73
2023-03-21T01:02:27.170Z, 29.75
2023-03-21T01:03:27.058Z, 29.75
2023-03-21T01:04:27.112Z, 29.74
2023-03-21T01:05:27.091Z, 29.68
2023-03-21T01:06:27.132Z, 29.64
2023-03-21T01:07:27.096Z, 29.65
2023-03-21T01:08:31.379Z, 29.64
2023-03-21T01:09:27.147Z, 29.67
2023-03-21T01:10:27.140Z, 29.66
2023-03-21T01:11:27.139Z, 29.63
2023-03-21T01:12:27.161Z, 29.65
2023-03-21T01:13:27.218Z, 29.63
2023-03-21T01:14:27.208Z, 29.63
2023-03-21T01:15:27.240Z, 29.62
2023-03-21T01:16:27.252Z, 29.63
2023-03-21T01:17:27.283Z, 29.62
2023-03-21T01:18:27.279Z, 29.58
2023-03-21T01:19:37.643Z, 29.58
2023-03-21T01:20:27.260Z, 29.56
2023-03-21T01:21:31.908Z, 29.56
2023-03-21T01:22:27.266Z, 29.58
2023-03-21T01:23:27.288Z, 29.58
2023-03-21T01:24:27.281Z, 29.58
2023-03-21T01:25:27.294Z, 29.56
2023-03-21T01:26:27.368Z, 29.56
2023-03-21T01:27:27.355Z, 29.56
2023-03-21T01:28:27.345Z, 29.54
2023-03-21T01:29:27.396Z, 29.52
2023-03-21T01:30:31.236Z, 29.52
2023-03-21T01:31:27.439Z, 29.55
2023-03-21T01:32:27.372Z, 29.58
2023-03-21T01:33:27.396Z, 29.56
2023-03-21T01:34:27.404Z, 29.55
2023-03-21T01:35:30.048Z, 29.53
2023-03-21T01:36:27.607Z, 29.51
2023-03-21T01:37:27.463Z, 29.52
2023-03-21T01:38:27.505Z, 29.53
2023-03-21T01:39:27.481Z, 29.54
2023-03-21T01:40:27.494Z, 29.52
2023-03-21T01:41:36.609Z, 29.47
2023-03-21T01:42:27.510Z, 29.44
2023-03-21T01:43:27.602Z, 29.44
2023-03-21T01:44:27.577Z, 29.44
2023-03-21T01:45:27.662Z, 29.42
2023-03-21T01:46:30.223Z, 29.42
2023-03-21T01:47:27.577Z, 29.43
2023-03-21T01:48:27.584Z, 29.43
2023-03-21T01:49:27.594Z, 29.47
2023-03-21T01:50:27.604Z, 29.47
2023-03-21T01:51:27.621Z, 29.44
2023-03-21T01:52:37.119Z, 29.43
2023-03-21T01:53:27.678Z, 29.40
2023-03-21T01:54:27.736Z, 29.39
2023-03-21T01:55:27.680Z, 29.40
2023-03-21T01:56:27.739Z, 29.38
2023-03-21T01:57:32.471Z, 29.35
2023-03-21T01:58:27.710Z, 29.34
2023-03-21T01:59:27.726Z, 29.33
2023-03-21T02:00:27.727Z, 29.35
2023-03-21T02:01:27.818Z, 29.40
2023-03-21T02:02:27.754Z, 29.37
2023-03-21T02:03:35.767Z, 29.38
2023-03-21T02:04:27.901Z, 29.35
2023-03-21T02:05:27.805Z, 29.35
2023-03-21T02:06:27.861Z, 29.31
2023-03-21T02:07:27.841Z, 29.31
2023-03-21T02:08:38.298Z, 29.30
2023-03-21T02:09:27.890Z, 29.29
2023-03-21T02:10:27.881Z, 29.27
2023-03-21T02:11:27.901Z, 29.26
2023-03-21T02:12:27.896Z, 29.26
2023-03-21T02:13:27.952Z, 29.24
2023-03-21T02:14:29.526Z, 29.28
2023-03-21T02:15:27.992Z, 29.27
2023-03-21T02:16:27.967Z, 29.27
2023-03-21T02:17:28.013Z, 29.25
2023-03-21T02:18:28.008Z, 29.22
2023-03-21T02:19:34.187Z, 29.21
2023-03-21T02:20:28.017Z, 29.22
2023-03-21T02:21:28.011Z, 29.20
2023-03-21T02:22:28.007Z, 29.18
2023-03-21T02:23:28.024Z, 29.20
2023-03-21T02:24:28.008Z, 29.20
2023-03-21T02:25:28.008Z, 29.20
2023-03-21T02:26:36.180Z, 29.18
2023-03-21T02:27:28.054Z, 29.21
2023-03-21T02:28:28.121Z, 29.21
2023-03-21T02:29:28.121Z, 29.19
2023-03-21T02:30:31.845Z, 29.17
2023-03-21T02:31:28.165Z, 29.15
2023-03-21T02:32:36.922Z, 29.11
2023-03-21T02:33:28.122Z, 29.13
2023-03-21T02:34:28.132Z, 29.11
2023-03-21T02:35:35.402Z, 29.11
2023-03-21T02:36:28.232Z, 29.09
2023-03-21T02:37:37.172Z, 29.08
2023-03-21T02:38:28.214Z, 29.09
2023-03-21T02:39:28.275Z, 29.07
2023-03-21T02:40:28.239Z, 29.08
2023-03-21T02:41:32.432Z, 29.14
2023-03-21T02:42:28.254Z, 29.11
2023-03-21T02:43:28.317Z, 29.09
2023-03-21T02:44:28.292Z, 29.06
2023-03-21T02:45:28.345Z, 29.06
2023-03-21T02:46:36.485Z, 29.09
2023-03-21T02:47:28.318Z, 29.08
2023-03-21T02:48:38.057Z, 29.08
2023-03-21T02:49:28.311Z, 29.05
2023-03-21T02:50:28.319Z, 29.06
2023-03-21T02:51:28.330Z, 29.03
2023-03-21T02:52:38.531Z, 28.99
2023-03-21T02:53:28.340Z, 28.97
2023-03-21T02:54:41.878Z, 28.97
2023-03-21T02:55:28.401Z, 28.98
2023-03-21T02:56:28.408Z, 29.03
2023-03-21T02:57:36.951Z, 29.03
2023-03-21T02:58:28.419Z, 29.01
2023-03-21T02:59:28.424Z, 29.01
2023-03-21T03:00:28.524Z, 28.99
2023-03-21T03:01:28.559Z, 28.98
2023-03-21T03:02:28.585Z, 29.00
2023-03-21T03:03:34.548Z, 28.99
2023-03-21T03:04:28.674Z, 28.97
2023-03-21T03:05:28.583Z, 29.01
2023-03-21T03:06:28.570Z, 28.99
2023-03-21T03:07:28.550Z, 28.96
2023-03-21T03:08:39.427Z, 28.94
2023-03-21T03:09:28.626Z, 28.93
2023-03-21T03:10:28.611Z, 28.91
2023-03-21T03:11:28.620Z, 28.91
2023-03-21T03:12:28.610Z, 28.94
2023-03-21T03:13:28.623Z, 28.95
2023-03-21T03:14:44.153Z, 28.93
2023-03-21T03:15:28.809Z, 28.96
2023-03-21T03:16:28.651Z, 28.93
2023-03-21T03:17:28.702Z, 28.90
2023-03-21T03:18:28.675Z, 28.92
2023-03-21T03:19:29.218Z, 28.92
2023-03-21T03:20:28.697Z, 28.93
2023-03-21T03:21:28.721Z, 28.89
2023-03-21T03:22:28.783Z, 28.87
2023-03-21T03:23:28.761Z, 28.86
2023-03-21T03:24:28.826Z, 28.84
2023-03-21T03:25:41.645Z, 28.85
2023-03-21T03:26:28.832Z, 28.86
2023-03-21T03:27:28.812Z, 28.83
2023-03-21T03:28:28.826Z, 28.81
2023-03-21T03:29:28.815Z, 28.78
2023-03-21T03:30:39.082Z, 28.79
2023-03-21T03:31:28.856Z, 28.78
2023-03-21T03:32:28.845Z, 28.77
2023-03-21T03:33:28.848Z, 28.79
2023-03-21T03:34:28.869Z, 28.80
2023-03-21T03:35:28.886Z, 28.79
2023-03-21T03:36:32.640Z, 28.76
2023-03-21T03:37:28.975Z, 28.76
2023-03-21T03:38:28.964Z, 28.73
2023-03-21T03:39:28.977Z, 28.76
2023-03-21T03:40:28.983Z, 28.78
2023-03-21T03:41:31.839Z, 28.79
2023-03-21T03:42:29.231Z, 28.73
2023-03-21T03:43:28.976Z, 28.72
2023-03-21T03:44:29.028Z, 28.72
2023-03-21T03:45:29.017Z, 28.70
2023-03-21T03:46:29.075Z, 28.70
2023-03-21T03:47:33.839Z, 28.72
2023-03-21T03:48:29.128Z, 28.72
2023-03-21T03:49:29.057Z, 28.72
2023-03-21T03:50:32.708Z, 28.73
2023-03-21T03:51:29.133Z, 28.72
2023-03-21T03:52:29.124Z, 28.70
2023-03-21T03:53:29.117Z, 28.71
2023-03-21T03:54:29.119Z, 28.70
2023-03-21T03:55:29.129Z, 28.70
2023-03-21T03:56:29.203Z, 28.70
2023-03-21T03:57:29.161Z, 28.68
2023-03-21T03:58:42.953Z, 28.68
2023-03-21T03:59:29.209Z, 28.69
2023-03-21T04:00:29.220Z, 28.67
2023-03-21T04:01:29.270Z, 28.69
2023-03-21T04:02:29.291Z, 28.66
2023-03-21T04:03:34.343Z, 28.64
2023-03-21T04:04:29.441Z, 28.64
2023-03-21T04:05:29.244Z, 28.64
2023-03-21T04:06:29.319Z, 28.63
2023-03-21T04:07:29.283Z, 28.61
2023-03-21T04:08:29.285Z, 28.61
2023-03-21T04:09:43.135Z, 28.61
2023-03-21T04:10:29.323Z, 28.58
2023-03-21T04:11:29.317Z, 28.60
2023-03-21T04:12:29.336Z, 28.61
2023-03-21T04:13:29.337Z, 28.62
2023-03-21T04:14:42.037Z, 28.65
2023-03-21T04:15:29.385Z, 28.64
2023-03-21T04:16:29.515Z, 28.61
2023-03-21T04:17:29.398Z, 28.57
2023-03-21T04:18:29.433Z, 28.56
2023-03-21T04:19:29.421Z, 28.57
2023-03-21T04:20:43.537Z, 28.59
2023-03-21T04:21:29.465Z, 28.58
2023-03-21T04:22:29.456Z, 28.55
2023-03-21T04:23:29.525Z, 28.54
2023-03-21T04:24:29.517Z, 28.54
2023-03-21T04:25:33.997Z, 28.56
2023-03-21T04:26:29.531Z, 28.56
2023-03-21T04:27:29.578Z, 28.53
2023-03-21T04:28:29.553Z, 28.51
2023-03-21T04:29:29.689Z, 28.53
2023-03-21T04:30:29.582Z, 28.51
2023-03-21T04:31:29.630Z, 29.04
2023-03-21T04:32:29.615Z, 30.31
2023-03-21T04:33:29.593Z, 31.45
2023-03-21T04:34:29.602Z, 31.95
2023-03-21T04:35:29.599Z, 32.35
2023-03-21T04:36:29.687Z, 32.65
2023-03-21T04:37:29.664Z, 32.88
2023-03-21T04:38:29.707Z, 33.01
2023-03-21T04:39:29.690Z, 33.16
2023-03-21T04:40:29.752Z, 33.29
2023-03-21T04:41:29.722Z, 33.42
2023-03-21T04:42:29.776Z, 33.39
2023-03-21T04:43:29.756Z, 36.97
2023-03-21T04:44:29.771Z, 43.28
2023-03-21T04:45:29.840Z, 45.65
2023-03-21T04:46:29.765Z, 43.66
2023-03-21T04:47:29.786Z, 41.41
2023-03-21T04:48:29.790Z, 39.54
2023-03-21T04:49:29.797Z, 38.15
2023-03-21T04:50:29.831Z, 36.63
2023-03-21T04:51:29.840Z, 35.34
2023-03-21T04:52:29.837Z, 34.74
2023-03-21T04:53:29.901Z, 34.36
2023-03-21T04:54:29.894Z, 34.13
2023-03-21T04:55:29.885Z, 33.92
2023-03-21T04:56:29.892Z, 33.65
2023-03-21T04:57:29.902Z, 32.85
2023-03-21T04:58:29.895Z, 31.74
2023-03-21T04:59:29.902Z, 35.30
2023-03-21T05:00:29.908Z, 40.17
2023-03-21T05:01:29.942Z, 43.14
2023-03-21T05:02:29.964Z, 44.95
2023-03-21T05:03:31.740Z, 46.04
2023-03-21T05:04:29.998Z, 48.15
2023-03-21T05:05:33.109Z, 50.94
2023-03-21T05:06:29.985Z, 54.18
2023-03-21T05:07:29.986Z, 57.79
2023-03-21T05:08:30.006Z, 64.39
2023-03-21T05:09:30.105Z, 61.80
2023-03-21T05:10:30.111Z, 52.36
2023-03-21T05:11:30.101Z, 53.13
2023-03-21T05:12:30.132Z, 54.05
2023-03-21T05:13:30.109Z, 56.31
2023-03-21T05:14:30.163Z, 59.19
2023-03-21T05:15:30.155Z, 67.19
2023-03-21T05:16:30.226Z, 59.50
2023-03-21T05:17:30.130Z, 53.04
2023-03-21T05:18:30.177Z, 54.24
2023-03-21T05:19:30.161Z, 55.17
2023-03-21T05:20:30.172Z, 57.62
2023-03-21T05:21:30.211Z, 60.81
2023-03-21T05:22:30.184Z, 67.50
2023-03-21T05:23:30.253Z, 54.52
2023-03-21T05:24:30.226Z, 54.07
2023-03-21T05:25:30.230Z, 55.34
2023-03-21T05:26:30.234Z, 56.76
2023-03-21T05:27:30.288Z, 59.88
2023-03-21T05:28:30.276Z, 66.98
2023-03-21T05:29:30.318Z, 54.50
2023-03-21T05:30:30.342Z, 52.79
2023-03-21T05:31:30.322Z, 53.93
2023-03-21T05:32:30.376Z, 55.10
2023-03-21T05:33:30.368Z, 50.93
2023-03-21T05:34:30.396Z, 46.27
2023-03-21T05:35:30.378Z, 44.24
2023-03-21T05:36:30.416Z, 43.19
2023-03-21T05:37:30.401Z, 42.38
2023-03-21T05:38:30.392Z, 41.87
2023-03-21T05:39:30.407Z, 41.50
2023-03-21T05:40:30.411Z, 41.20
2023-03-21T05:41:30.495Z, 40.97
2023-03-21T05:42:30.481Z, 40.79
2023-03-21T05:43:30.533Z, 40.58
2023-03-21T05:44:30.519Z, 40.40
2023-03-21T05:45:30.551Z, 40.20
2023-03-21T05:46:30.554Z, 40.02
2023-03-21T05:47:30.550Z, 39.86
2023-03-21T05:48:30.533Z, 39.74
2023-03-21T05:49:30.590Z, 39.67
2023-03-21T05:50:30.559Z, 39.56
2023-03-21T05:51:30.590Z, 39.48
2023-03-21T05:52:30.574Z, 39.40
2023-03-21T05:53:30.585Z, 39.28
2023-03-21T05:54:30.592Z, 39.19
2023-03-21T05:55:30.672Z, 39.11
2023-03-21T05:56:30.659Z, 39.04
2023-03-21T05:57:30.678Z, 39.07
2023-03-21T05:58:30.645Z, 44.11
2023-03-21T05:59:30.658Z, 51.13
2023-03-21T06:00:30.833Z, 52.86
2023-03-21T06:01:30.679Z, 51.40
2023-03-21T06:02:30.807Z, 50.32
2023-03-21T06:03:30.840Z, 49.85
2023-03-21T06:04:30.766Z, 49.31
2023-03-21T06:05:30.761Z, 48.72
2023-03-21T06:06:30.756Z, 48.23
2023-03-21T06:07:30.746Z, 47.81
2023-03-21T06:08:30.764Z, 47.40
2023-03-21T06:09:30.820Z, 47.09
2023-03-21T06:10:30.814Z, 46.68
2023-03-21T06:11:30.873Z, 46.32
2023-03-21T06:12:30.839Z, 45.96
2023-03-21T06:13:30.839Z, 45.55
2023-03-21T06:14:30.829Z, 45.18
2023-03-21T06:15:30.848Z, 44.74
2023-03-21T06:16:30.876Z, 44.45
2023-03-21T06:17:30.856Z, 44.18
2023-03-21T06:18:33.519Z, 44.00
2023-03-21T06:19:30.916Z, 43.86
2023-03-21T06:20:30.912Z, 43.64
2023-03-21T06:21:30.912Z, 43.46
2023-03-21T06:22:30.991Z, 43.28
2023-03-21T06:23:30.972Z, 43.08
2023-03-21T06:24:30.955Z, 42.91
2023-03-21T06:25:30.974Z, 42.77
2023-03-21T06:26:31.021Z, 42.58
2023-03-21T06:27:30.990Z, 42.43
2023-03-21T06:28:31.002Z, 42.31
2023-03-21T06:29:31.090Z, 42.18
2023-03-21T06:30:31.058Z, 42.13
2023-03-21T06:31:31.187Z, 42.00
2023-03-21T06:32:31.096Z, 41.89
2023-03-21T06:33:31.123Z, 41.80
2023-03-21T06:34:31.097Z, 41.68
2023-03-21T06:35:31.159Z, 41.58
2023-03-21T06:36:31.194Z, 41.50
2023-03-21T06:37:31.165Z, 41.36
2023-03-21T06:38:31.197Z, 41.29
2023-03-21T06:39:31.173Z, 41.16
2023-03-21T06:40:31.171Z, 41.06
2023-03-21T06:41:31.179Z, 40.97
2023-03-21T06:42:31.175Z, 40.86
2023-03-21T06:43:31.204Z, 40.77
2023-03-21T06:44:31.189Z, 40.68
2023-03-21T06:45:31.196Z, 40.60
2023-03-21T06:46:31.240Z, 40.54
2023-03-21T06:47:31.219Z, 40.49
2023-03-21T06:48:31.238Z, 40.40
2023-03-21T06:49:31.258Z, 40.27
2023-03-21T06:50:31.254Z, 40.17
2023-03-21T06:51:31.274Z, 40.09
2023-03-21T06:52:31.284Z, 40.01
2023-03-21T06:53:31.362Z, 39.91
2023-03-21T06:54:31.347Z, 39.84
2023-03-21T06:55:31.410Z, 39.73
2023-03-21T06:56:31.392Z, 39.67
2023-03-21T06:57:31.402Z, 39.59
2023-03-21T06:58:31.384Z, 39.53
2023-03-21T06:59:31.417Z, 39.46
2023-03-21T07:00:31.618Z, 39.35
2023-03-21T07:01:31.412Z, 39.29
2023-03-21T07:02:31.444Z, 39.25
2023-03-21T07:03:31.479Z, 39.20
2023-03-21T07:04:31.470Z, 39.10
2023-03-21T07:05:31.463Z, 39.08
2023-03-21T07:06:31.469Z, 38.97
2023-03-21T07:07:31.477Z, 38.90
2023-03-21T07:08:31.516Z, 38.87
2023-03-21T07:09:31.520Z, 38.79
2023-03-21T07:10:31.552Z, 38.74
2023-03-21T07:11:31.525Z, 38.69
2023-03-21T07:12:31.547Z, 38.63
2023-03-21T07:13:31.527Z, 38.59
2023-03-21T07:14:31.545Z, 38.56
2023-03-21T07:15:31.591Z, 38.48
2023-03-21T07:16:31.587Z, 38.43
2023-03-21T07:17:31.655Z, 38.40
2023-03-21T07:18:31.626Z, 38.40
2023-03-21T07:19:31.621Z, 38.33
2023-03-21T07:20:31.631Z, 38.26
2023-03-21T07:21:31.644Z, 38.20
2023-03-21T07:22:31.713Z, 38.16
2023-03-21T07:23:31.689Z, 38.14
2023-03-21T07:24:31.693Z, 38.11
2023-03-21T07:25:31.821Z, 38.04
2023-03-21T07:26:31.723Z, 38.02
2023-03-21T07:27:31.746Z, 37.97
2023-03-21T07:28:31.756Z, 37.95
2023-03-21T07:29:31.757Z, 37.91
2023-03-21T07:30:31.824Z, 37.86
2023-03-21T07:31:31.816Z, 37.79
2023-03-21T07:32:31.784Z, 37.77
2023-03-21T07:33:33.896Z, 37.71
2023-03-21T07:34:31.814Z, 37.67
2023-03-21T07:35:31.802Z, 37.61
2023-03-21T07:36:31.813Z, 37.57
2023-03-21T07:37:31.844Z, 37.57
2023-03-21T07:38:31.878Z, 37.55
2023-03-21T07:39:31.912Z, 37.51
2023-03-21T07:40:31.910Z, 37.44
2023-03-21T07:41:31.978Z, 37.38
2023-03-21T07:43:31.931Z, 37.32
2023-03-21T07:44:31.916Z, 37.30
2023-03-21T07:45:31.953Z, 37.29
2023-03-21T07:46:32.014Z, 37.25
2023-03-21T07:47:31.962Z, 37.21
2023-03-21T07:48:31.952Z, 37.17
2023-03-21T07:49:32.034Z, 37.15
2023-03-21T07:50:32.012Z, 37.10
2023-03-21T07:51:32.016Z, 37.08
2023-03-21T07:52:32.045Z, 37.06
2023-03-21T07:53:32.039Z, 37.02
2023-03-21T07:54:32.094Z, 36.97
2023-03-21T07:55:32.080Z, 36.93
2023-03-21T07:56:32.132Z, 36.92
2023-03-21T07:57:32.132Z, 36.85
2023-03-21T07:58:32.106Z, 36.85
2023-03-21T07:59:32.104Z, 36.81
2023-03-21T08:00:32.125Z, 36.76
2023-03-21T08:01:32.185Z, 36.72
2023-03-21T08:02:32.195Z, 36.67
2023-03-21T08:03:32.267Z, 36.64
2023-03-21T08:04:32.188Z, 36.65
2023-03-21T08:05:32.219Z, 36.64
2023-03-21T08:06:32.186Z, 36.65
2023-03-21T08:07:32.194Z, 36.56
2023-03-21T08:08:32.238Z, 36.61
2023-03-21T08:09:32.227Z, 36.55
2023-03-21T08:10:32.290Z, 36.48
2023-03-21T08:11:32.317Z, 36.45
2023-03-21T08:12:32.344Z, 36.43
2023-03-21T08:13:32.298Z, 36.43
2023-03-21T08:14:32.327Z, 36.37
2023-03-21T08:15:32.317Z, 36.32
2023-03-21T08:16:32.389Z, 36.33
2023-03-21T08:17:32.339Z, 36.31
2023-03-21T08:18:32.342Z, 36.28
2023-03-21T08:19:32.379Z, 36.23
2023-03-21T08:20:32.369Z, 36.23
2023-03-21T08:21:32.383Z, 36.20
2023-03-21T08:22:32.391Z, 36.17
2023-03-21T08:23:32.458Z, 36.13
2023-03-21T08:24:32.452Z, 36.10
2023-03-21T08:25:32.440Z, 36.08
2023-03-21T08:26:32.462Z, 36.04
2023-03-21T08:27:32.443Z, 36.07
2023-03-21T08:28:32.449Z, 36.00
2023-03-21T08:29:32.469Z, 35.99
2023-03-21T08:30:32.551Z, 35.96
2023-03-21T08:31:32.499Z, 35.97
2023-03-21T08:32:32.500Z, 35.98
2023-03-21T08:33:32.539Z, 35.86
2023-03-21T08:34:32.553Z, 35.82
2023-03-21T08:35:32.567Z, 35.82
2023-03-21T08:36:32.648Z, 35.83
2023-03-21T08:37:32.614Z, 35.80
2023-03-21T08:38:32.671Z, 35.76
2023-03-21T08:39:32.753Z, 35.75
2023-03-21T08:40:32.694Z, 35.76
2023-03-21T08:41:32.688Z, 35.75
2023-03-21T08:42:32.669Z, 35.72
2023-03-21T08:43:32.677Z, 35.69
2023-03-21T08:44:32.678Z, 35.62
2023-03-21T08:45:32.689Z, 35.62
2023-03-21T08:46:32.758Z, 35.61
2023-03-21T08:47:32.752Z, 35.59
2023-03-21T08:48:34.200Z, 35.59
2023-03-21T08:49:32.752Z, 35.55
2023-03-21T08:50:32.747Z, 35.49
2023-03-21T08:51:32.796Z, 35.48
2023-03-21T08:52:32.785Z, 35.44
2023-03-21T08:53:32.832Z, 35.45
2023-03-21T08:54:32.807Z, 35.41
2023-03-21T08:55:32.844Z, 35.41
2023-03-21T08:56:32.836Z, 35.38
2023-03-21T08:57:32.853Z, 35.39
2023-03-21T08:58:32.849Z, 35.34
2023-03-21T08:59:32.861Z, 35.31
2023-03-21T09:00:32.876Z, 35.30
2023-03-21T09:01:32.876Z, 35.29
2023-03-21T09:02:32.873Z, 35.27
2023-03-21T09:03:32.917Z, 35.26
2023-03-21T09:04:32.959Z, 35.22
2023-03-21T09:05:32.944Z, 35.24
2023-03-21T09:06:32.952Z, 35.21
2023-03-21T09:07:33.005Z, 35.15
2023-03-21T09:08:32.993Z, 35.14
2023-03-21T09:09:33.039Z, 35.14
2023-03-21T09:10:33.034Z, 35.12
2023-03-21T09:11:33.022Z, 35.15
2023-03-21T09:12:33.037Z, 35.20
2023-03-21T09:13:33.057Z, 35.14
2023-03-21T09:14:33.100Z, 35.13
2023-03-21T09:15:33.065Z, 35.04
2023-03-21T09:16:33.215Z, 35.06
2023-03-21T09:17:33.101Z, 35.04
2023-03-21T09:18:33.118Z, 34.98
2023-03-21T09:19:33.141Z, 34.97
2023-03-21T09:20:33.208Z, 34.96
2023-03-21T09:21:33.161Z, 34.95
2023-03-21T09:22:33.160Z, 34.90
2023-03-21T09:23:33.159Z, 34.91
2023-03-21T09:24:33.172Z, 34.90
2023-03-21T09:25:33.196Z, 34.86
2023-03-21T09:26:33.188Z, 34.84
2023-03-21T09:27:33.254Z, 34.85
2023-03-21T09:28:33.234Z, 34.81
2023-03-21T09:29:33.244Z, 34.78
2023-03-21T09:30:33.242Z, 34.75
2023-03-21T09:31:33.290Z, 34.79
2023-03-21T09:32:33.269Z, 34.74
2023-03-21T09:33:33.287Z, 34.78
2023-03-21T09:34:33.374Z, 34.75
2023-03-21T09:35:33.345Z, 34.73
2023-03-21T09:36:33.398Z, 34.69
2023-03-21T09:37:33.368Z, 34.66
2023-03-21T09:38:33.361Z, 34.69
2023-03-21T09:39:33.503Z, 34.68
2023-03-21T09:40:33.386Z, 34.68
2023-03-21T09:41:33.403Z, 34.62
2023-03-21T09:42:33.415Z, 34.58
2023-03-21T09:43:33.408Z, 34.55
2023-03-21T09:44:33.414Z, 34.52
2023-03-21T09:45:33.486Z, 34.52
2023-03-21T09:46:33.476Z, 34.49
2023-03-21T09:47:33.457Z, 34.48
2023-03-21T09:48:33.535Z, 34.43
2023-03-21T09:49:33.491Z, 34.42
2023-03-21T09:50:33.486Z, 34.45
2023-03-21T09:51:33.492Z, 34.44
2023-03-21T09:52:33.570Z, 34.48
2023-03-21T09:53:33.533Z, 34.49
2023-03-21T09:54:33.614Z, 34.46
2023-03-21T09:55:33.568Z, 34.43
2023-03-21T09:56:33.572Z, 34.40
2023-03-21T09:57:33.665Z, 34.41
2023-03-21T09:58:33.603Z, 34.40
2023-03-21T09:59:33.925Z, 34.36
2023-03-21T10:00:33.672Z, 34.35
2023-03-21T10:01:33.707Z, 34.32
2023-03-21T10:02:33.704Z, 34.33
2023-03-21T10:03:34.559Z, 34.31
2023-03-21T10:04:33.721Z, 34.34
2023-03-21T10:05:33.688Z, 34.29
2023-03-21T10:06:33.752Z, 34.26
2023-03-21T10:07:33.739Z, 34.25
2023-03-21T10:08:33.773Z, 34.23
2023-03-21T10:09:33.765Z, 34.22
2023-03-21T10:10:33.770Z, 34.21
2023-03-21T10:11:34.011Z, 34.21
2023-03-21T10:12:33.770Z, 34.21
2023-03-21T10:13:33.782Z, 34.15
2023-03-21T10:14:33.797Z, 34.16
2023-03-21T10:15:33.806Z, 34.12
2023-03-21T10:16:33.861Z, 34.16
2023-03-21T10:17:33.908Z, 34.12
2023-03-21T10:18:33.847Z, 34.12
2023-03-21T10:19:33.859Z, 34.08
2023-03-21T10:20:33.857Z, 34.10
2023-03-21T10:21:56.421Z, 34.10
2023-03-21T10:22:33.899Z, 34.05
2023-03-21T10:23:33.889Z, 34.00
2023-03-21T10:24:33.950Z, 34.03
2023-03-21T10:25:33.938Z, 34.05
2023-03-21T10:26:33.936Z, 34.03
2023-03-21T10:27:33.999Z, 34.04
2023-03-21T10:28:46.178Z, 33.99
2023-03-21T10:29:34.053Z, 33.96
2023-03-21T10:30:34.010Z, 33.95
2023-03-21T10:31:34.108Z, 33.95
2023-03-21T10:32:34.099Z, 33.95
2023-03-21T10:33:34.092Z, 33.94
2023-03-21T10:34:34.065Z, 33.91
2023-03-21T10:35:34.182Z, 33.86
2023-03-21T10:36:34.080Z, 33.88
2023-03-21T10:37:34.103Z, 33.81
2023-03-21T10:38:34.091Z, 33.79
2023-03-21T10:39:34.106Z, 33.76
2023-03-21T10:40:35.500Z, 33.77
2023-03-21T10:41:34.110Z, 33.76
2023-03-21T10:42:34.194Z, 33.73
2023-03-21T10:43:34.239Z, 33.74
2023-03-21T10:44:34.215Z, 33.70
2023-03-21T10:45:34.256Z, 33.70
2023-03-21T10:46:36.155Z, 33.66
2023-03-21T10:47:34.670Z, 33.68
2023-03-21T10:48:34.380Z, 33.66
2023-03-21T10:49:40.577Z, 33.66
2023-03-21T10:50:34.273Z, 33.69
2023-03-21T10:51:34.256Z, 33.68
2023-03-21T10:52:34.241Z, 33.68
2023-03-21T10:53:34.260Z, 33.62
2023-03-21T10:54:34.310Z, 33.61
2023-03-21T10:55:34.294Z, 33.60
2023-03-21T10:56:34.324Z, 33.60
2023-03-21T10:57:34.321Z, 33.58
2023-03-21T10:58:34.352Z, 33.61
2023-03-21T10:59:34.324Z, 33.55
2023-03-21T11:00:34.372Z, 33.52
2023-03-21T11:01:34.412Z, 34.03
2023-03-21T11:02:34.459Z, 34.93
2023-03-21T11:03:34.382Z, 35.24
2023-03-21T11:04:34.377Z, 35.30
2023-03-21T11:05:34.470Z, 35.38
2023-03-21T11:06:34.435Z, 35.36
2023-03-21T11:07:34.513Z, 35.34
2023-03-21T11:08:34.476Z, 35.25
2023-03-21T11:09:34.486Z, 35.05
2023-03-21T11:10:34.497Z, 34.66
2023-03-21T11:11:34.492Z, 34.25
2023-03-21T11:12:34.492Z, 33.94
2023-03-21T11:13:34.515Z, 33.70
2023-03-21T11:14:34.516Z, 33.54
2023-03-21T11:15:34.529Z, 33.40
2023-03-21T11:16:34.593Z, 33.32
2023-03-21T11:17:34.852Z, 33.24
2023-03-21T11:18:34.647Z, 33.16
2023-03-21T11:19:34.617Z, 33.09
2023-03-21T11:20:34.673Z, 33.07
2023-03-21T11:21:34.656Z, 33.01
2023-03-21T11:22:34.690Z, 32.96
2023-03-21T11:23:34.681Z, 32.92
2023-03-21T11:24:34.681Z, 32.89
2023-03-21T11:25:34.678Z, 32.87
2023-03-21T11:26:34.760Z, 32.87
2023-03-21T11:27:34.730Z, 32.84
2023-03-21T11:28:34.733Z, 32.74
2023-03-21T11:29:34.757Z, 37.51
2023-03-21T11:30:34.860Z, 45.40
2023-03-21T11:31:34.809Z, 50.02
2023-03-21T11:32:34.802Z, 51.44
2023-03-21T11:33:34.847Z, 50.16
2023-03-21T11:34:34.819Z, 49.39
2023-03-21T11:35:34.868Z, 48.85
2023-03-21T11:36:34.840Z, 48.40
2023-03-21T11:37:34.889Z, 47.93
2023-03-21T11:38:34.852Z, 47.52
2023-03-21T11:39:34.908Z, 47.09
2023-03-21T11:40:34.867Z, 46.75
2023-03-21T11:41:34.896Z, 46.36
2023-03-21T11:42:34.933Z, 46.02
2023-03-21T11:43:34.916Z, 45.77
2023-03-21T11:44:34.915Z, 45.48
2023-03-21T11:45:34.969Z, 45.22
2023-03-21T11:46:35.144Z, 44.98
2023-03-21T11:47:34.983Z, 44.80
2023-03-21T11:48:35.024Z, 44.58
2023-03-21T11:49:35.011Z, 44.40
2023-03-21T11:50:35.056Z, 44.21
2023-03-21T11:51:35.008Z, 44.05
2023-03-21T11:52:35.064Z, 43.93
2023-03-21T11:53:35.057Z, 43.72
2023-03-21T11:54:35.104Z, 43.57
2023-03-21T11:55:35.135Z, 43.42
2023-03-21T11:56:35.077Z, 43.24
2023-03-21T11:57:35.086Z, 43.10
2023-03-21T11:58:35.095Z, 42.98
2023-03-21T11:59:35.114Z, 42.88
2023-03-21T12:00:35.100Z, 42.71
2023-03-21T12:01:35.174Z, 42.56
2023-03-21T12:02:35.174Z, 42.41
2023-03-21T12:03:45.347Z, 42.31
2023-03-21T12:04:35.199Z, 42.20
2023-03-21T12:05:35.239Z, 42.08
2023-03-21T12:06:35.209Z, 41.97
2023-03-21T12:07:35.200Z, 41.86
2023-03-21T12:08:35.200Z, 41.77
2023-03-21T12:09:35.219Z, 41.64
2023-03-21T12:10:35.240Z, 41.52
2023-03-21T12:11:35.262Z, 41.39
2023-03-21T12:12:39.192Z, 41.32
2023-03-21T12:13:35.309Z, 41.21
2023-03-21T12:14:35.314Z, 41.13
2023-03-21T12:15:35.328Z, 41.08
2023-03-21T12:16:35.406Z, 40.90
2023-03-21T12:17:35.348Z, 40.86
2023-03-21T12:18:35.345Z, 40.75
2023-03-21T12:19:35.355Z, 40.70
2023-03-21T12:20:35.371Z, 40.62
2023-03-21T12:21:35.374Z, 40.52
2023-03-21T12:22:35.398Z, 40.40
2023-03-21T12:23:35.487Z, 40.29
2023-03-21T12:24:35.419Z, 40.20
2023-03-21T12:25:35.936Z, 40.11
2023-03-21T12:26:35.448Z, 40.04
2023-03-21T12:27:35.857Z, 39.99
2023-03-21T12:28:35.458Z, 39.89
2023-03-21T12:29:35.524Z, 39.85